Time;durP1;ratioP1;P1;durP2;ratioP2;P2;SDS_P1;SDS_P2;PMS_P1;PMS_P2;Temp;Humidity;BMP_temperature;BMP_pressure;BME280_temperature;BME280_humidity;BME280_pressure;Samples;Min_cycle;Max_cycle;Signal;HPM_P1;HPM_P2
2023/06/05 00:00:01;;;;;;;5.60;5.20;;;27.50;50.80;;;;;;5009179;28;20507;-66
2023/06/05 00:02:39;;;;;;;5.27;4.80;;;27.40;50.70;;;;;;5012495;28;20467;-66
2023/06/05 00:05:08;;;;;;;5.10;4.70;;;27.40;50.70;;;;;;5016590;28;20527;-66
2023/06/05 00:07:38;;;;;;;5.07;4.70;;;27.40;50.70;;;;;;5012690;28;20457;-66
2023/06/05 00:10:08;;;;;;;5.40;4.90;;;27.40;50.80;;;;;;5017738;28;20493;-67
2023/06/05 00:12:38;;;;;;;5.30;4.90;;;27.40;50.70;;;;;;5017377;28;20479;-67
2023/06/05 00:15:07;;;;;;;5.10;4.70;;;27.40;50.40;;;;;;5017561;28;20462;-66
2023/06/05 00:17:36;;;;;;;4.87;4.37;;;27.40;50.40;;;;;;5016678;28;20467;-67
2023/06/05 00:20:09;;;;;;;4.80;4.40;;;27.40;50.40;;;;;;5013738;28;20469;-66
2023/06/05 00:22:38;;;;;;;5.53;4.93;;;27.40;50.40;;;;;;5013767;28;20547;-66
2023/06/05 00:25:08;;;;;;;5.17;4.77;;;27.40;50.50;;;;;;5012721;28;20516;-66
2023/06/05 00:27:40;;;;;;;5.10;4.60;;;27.30;50.70;;;;;;5014754;28;20494;-67
2023/06/05 00:30:09;;;;;;;4.80;4.40;;;27.30;50.70;;;;;;5012824;28;20472;-66
2023/06/05 00:32:38;;;;;;;5.47;5.07;;;27.30;50.80;;;;;;5024139;28;20512;-67
2023/06/05 00:35:08;;;;;;;4.90;4.50;;;27.30;50.60;;;;;;5016686;28;20478;-67
2023/06/05 00:37:38;;;;;;;4.93;4.50;;;27.30;50.80;;;;;;5017128;28;20472;-67
2023/06/05 00:40:07;;;;;;;4.50;4.20;;;27.30;50.80;;;;;;5013933;28;20483;-66
2023/06/05 00:42:37;;;;;;;4.93;4.50;;;27.30;50.80;;;;;;5014531;28;20457;-66
2023/06/05 00:45:06;;;;;;;5.27;4.87;;;27.20;50.80;;;;;;5021205;28;20491;-66
2023/06/05 00:47:35;;;;;;;5.67;4.93;;;27.20;50.80;;;;;;5023167;28;20836;-66
2023/06/05 00:50:04;;;;;;;4.87;4.47;;;27.20;50.80;;;;;;5011563;28;20440;-66
2023/06/05 00:52:34;;;;;;;5.53;5.03;;;27.20;50.70;;;;;;5010070;28;20460;-66
2023/06/05 00:55:03;;;;;;;5.33;4.83;;;27.20;50.80;;;;;;5010780;28;20448;-66
2023/06/05 00:57:34;;;;;;;5.83;5.37;;;27.20;50.80;;;;;;5011618;28;20453;-66
2023/06/05 01:00:06;;;;;;;4.60;4.30;;;27.20;50.80;;;;;;5010350;28;20542;-66
2023/06/05 01:02:37;;;;;;;5.47;4.97;;;27.20;50.80;;;;;;5031078;28;20462;-65
2023/06/05 01:05:06;;;;;;;4.83;4.43;;;27.20;50.90;;;;;;5011349;28;20476;-68
2023/06/05 01:07:34;;;;;;;5.20;4.70;;;27.20;50.80;;;;;;5031892;28;20709;-65
2023/06/05 01:10:03;;;;;;;5.67;5.17;;;27.20;50.80;;;;;;5010649;28;20964;-66
2023/06/05 01:12:39;;;;;;;5.37;4.93;;;27.20;50.80;;;;;;5011084;28;20455;-66
2023/06/05 01:15:09;;;;;;;5.53;5.10;;;27.10;50.80;;;;;;5009922;28;21032;-67
2023/06/05 01:17:38;;;;;;;4.90;4.50;;;27.10;50.80;;;;;;5011866;28;20463;-65
2023/06/05 01:20:09;;;;;;;5.20;4.63;;;27.10;50.80;;;;;;5010495;28;21100;-66
2023/06/05 01:22:38;;;;;;;5.47;4.97;;;27.10;50.80;;;;;;5015780;28;20466;-68
2023/06/05 01:25:09;;;;;;;6.30;4.83;;;27.10;50.80;;;;;;5024506;28;20530;-66
2023/06/05 01:27:43;;;;;;;5.33;4.93;;;27.10;50.80;;;;;;5009122;28;20499;-66
2023/06/05 01:30:19;;;;;;;4.77;4.23;;;27.10;50.90;;;;;;5010724;28;20471;-66
2023/06/05 01:32:54;;;;;;;4.90;4.50;;;27.00;50.90;;;;;;5010075;28;20967;-66
2023/06/05 01:35:27;;;;;;;5.87;5.37;;;27.00;50.90;;;;;;5012651;28;20539;-66
2023/06/05 01:37:59;;;;;;;4.63;4.23;;;27.00;50.80;;;;;;5013321;28;20441;-65
2023/06/05 01:40:31;;;;;;;6.13;5.63;;;27.00;50.70;;;;;;5019174;28;20460;-67
2023/06/05 01:43:02;;;;;;;4.43;4.13;;;27.00;50.80;;;;;;5011473;28;20486;-66
2023/06/05 01:45:31;;;;;;;4.80;4.40;;;27.00;50.60;;;;;;5012873;28;20463;-66
2023/06/05 01:48:00;;;;;;;4.73;4.33;;;27.00;50.80;;;;;;5012005;28;20462;-67
2023/06/05 01:50:36;;;;;;;4.93;4.53;;;27.00;50.50;;;;;;5009574;28;21599;-67
2023/06/05 01:53:04;;;;;;;4.90;4.50;;;27.00;50.50;;;;;;5011951;28;20492;-66
2023/06/05 01:55:38;;;;;;;5.00;4.60;;;27.00;50.30;;;;;;5009312;28;20471;-66
2023/06/05 01:58:07;;;;;;;4.30;3.90;;;27.00;50.30;;;;;;5012046;28;20966;-66
2023/06/05 02:00:36;;;;;;;4.50;4.10;;;27.00;50.40;;;;;;5026006;28;20480;-66
2023/06/05 02:03:04;;;;;;;4.60;4.20;;;26.90;50.50;;;;;;5010920;28;20855;-66
2023/06/05 02:05:33;;;;;;;4.83;4.43;;;26.90;50.70;;;;;;5011014;28;20461;-67
2023/06/05 02:08:04;;;;;;;4.70;4.30;;;26.90;50.50;;;;;;5012696;28;20489;-66
2023/06/05 02:10:35;;;;;;;4.13;3.83;;;26.90;50.20;;;;;;5012180;28;20871;-66
2023/06/05 02:13:03;;;;;;;4.27;3.97;;;26.90;50.10;;;;;;5011164;28;20825;-66
2023/06/05 02:15:33;;;;;;;3.97;3.67;;;26.90;50.50;;;;;;5007943;28;20490;-66
2023/06/05 02:18:02;;;;;;;4.40;4.00;;;26.90;50.20;;;;;;5010521;28;20464;-66
2023/06/05 02:20:32;;;;;;;4.43;4.03;;;26.90;50.30;;;;;;5028447;28;20558;-66
2023/06/05 02:23:01;;;;;;;4.23;3.93;;;26.90;50.50;;;;;;5017032;28;20464;-66
2023/06/05 02:25:29;;;;;;;4.53;4.20;;;26.90;50.20;;;;;;5023303;28;20540;-70
2023/06/05 02:27:59;;;;;;;4.47;4.03;;;26.90;50.00;;;;;;5018528;28;20492;-68
2023/06/05 02:30:27;;;;;;;4.33;3.93;;;26.90;50.40;;;;;;5018253;28;21338;-66
2023/06/05 02:33:00;;;;;;;3.70;3.50;;;26.80;50.60;;;;;;5012959;28;20548;-66
2023/06/05 02:35:30;;;;;;;4.07;3.70;;;26.80;50.60;;;;;;5012265;28;20467;-66
2023/06/05 02:37:58;;;;;;;5.33;4.10;;;26.80;50.10;;;;;;5012552;28;20503;-69
2023/06/05 02:40:26;;;;;;;4.27;3.87;;;26.80;50.40;;;;;;5017067;28;20439;-66
2023/06/05 02:42:55;;;;;;;3.67;3.37;;;26.80;50.50;;;;;;5015582;28;20469;-66
2023/06/05 02:45:25;;;;;;;4.30;4.00;;;26.80;50.50;;;;;;5011892;28;20940;-66
2023/06/05 02:47:54;;;;;;;4.20;3.90;;;26.80;50.40;;;;;;5013727;28;20975;-67
2023/06/05 02:50:22;;;;;;;3.40;3.20;;;26.80;50.50;;;;;;5011825;28;20970;-66
2023/06/05 02:52:53;;;;;;;3.97;3.67;;;26.80;50.30;;;;;;5030995;28;20518;-66
2023/06/05 02:55:29;;;;;;;4.40;4.10;;;26.80;50.40;;;;;;5017715;28;20475;-68
2023/06/05 02:58:00;;;;;;;3.50;3.20;;;26.80;50.50;;;;;;5011735;28;21039;-67
2023/06/05 03:00:39;;;;;;;3.73;3.43;;;26.80;50.00;;;;;;5016180;28;20491;-67
2023/06/05 03:03:07;;;;;;;3.83;3.43;;;26.80;50.40;;;;;;5014950;28;20459;-66
2023/06/05 03:05:37;;;;;;;3.30;3.00;;;26.70;50.40;;;;;;5011740;28;20464;-66
2023/06/05 03:08:11;;;;;;;3.20;3.00;;;26.70;50.40;;;;;;5012113;28;20547;-67
2023/06/05 03:10:39;;;;;;;4.00;3.70;;;26.70;50.20;;;;;;5026823;28;20472;-68
2023/06/05 03:13:09;;;;;;;3.70;3.40;;;26.70;50.40;;;;;;5011767;28;20517;-67
2023/06/05 03:15:40;;;;;;;4.23;3.83;;;26.70;50.40;;;;;;5028690;28;21181;-67
2023/06/05 03:18:12;;;;;;;2.90;2.70;;;26.70;50.30;;;;;;5027374;28;20483;-66
2023/06/05 03:20:40;;;;;;;2.80;2.60;;;26.70;50.30;;;;;;5011335;28;20467;-66
2023/06/05 03:23:09;;;;;;;3.53;3.23;;;26.70;50.30;;;;;;5017573;28;20466;-67
2023/06/05 03:25:38;;;;;;;3.77;3.57;;;26.70;50.10;;;;;;5012580;28;20473;-65
2023/06/05 03:28:07;;;;;;;3.43;3.20;;;26.70;50.30;;;;;;5011738;28;20516;-66
2023/06/05 03:30:36;;;;;;;3.83;3.53;;;26.70;50.00;;;;;;5014503;28;20478;-66
2023/06/05 03:33:07;;;;;;;3.63;3.33;;;26.70;50.30;;;;;;5026067;28;20489;-66
2023/06/05 03:35:36;;;;;;;3.30;3.10;;;26.70;50.40;;;;;;5027792;28;20534;-65
2023/06/05 03:38:06;;;;;;;4.00;3.60;;;26.60;50.30;;;;;;5011418;28;20481;-66
2023/06/05 03:40:35;;;;;;;2.80;2.60;;;26.60;50.30;;;;;;5013055;28;20469;-65
2023/06/05 03:43:04;;;;;;;3.60;3.30;;;26.60;50.30;;;;;;5013214;28;20486;-66
2023/06/05 03:45:36;;;;;;;3.20;3.00;;;26.60;50.40;;;;;;5012515;28;20566;-66
2023/06/05 03:48:08;;;;;;;3.03;2.83;;;26.60;50.30;;;;;;5013514;28;20462;-66
2023/06/05 03:50:41;;;;;;;3.90;3.60;;;26.60;50.30;;;;;;5019507;28;20466;-66
2023/06/05 03:53:10;;;;;;;3.00;2.80;;;26.60;50.30;;;;;;5017362;28;20461;-67
2023/06/05 03:55:41;;;;;;;3.13;2.83;;;26.60;50.40;;;;;;5030924;28;20473;-68
2023/06/05 03:58:16;;;;;;;3.33;3.13;;;26.60;50.30;;;;;;5015439;28;20533;-66
2023/06/05 04:00:49;;;;;;;3.03;2.83;;;26.60;50.30;;;;;;5011914;28;20471;-66
2023/06/05 04:03:20;;;;;;;3.00;2.80;;;26.60;50.30;;;;;;5023638;28;20479;-68
2023/06/05 04:05:52;;;;;;;3.23;2.77;;;26.60;50.40;;;;;;5026864;28;20476;-66
2023/06/05 04:08:20;;;;;;;3.00;2.80;;;26.60;50.40;;;;;;5014992;28;20803;-66
2023/06/05 04:10:48;;;;;;;3.10;2.83;;;26.60;50.50;;;;;;5019965;28;20556;-68
2023/06/05 04:13:18;;;;;;;3.50;3.20;;;26.60;50.40;;;;;;5032294;28;20471;-66
2023/06/05 04:15:48;;;;;;;3.50;3.30;;;26.60;50.40;;;;;;5027933;28;20476;-66
2023/06/05 04:18:17;;;;;;;3.43;3.17;;;26.60;50.40;;;;;;5010549;28;20475;-65
2023/06/05 04:20:49;;;;;;;2.93;2.73;;;26.60;50.40;;;;;;5010881;28;20486;-66
2023/06/05 04:23:18;;;;;;;3.50;3.20;;;26.60;50.40;;;;;;5012141;28;20471;-66
2023/06/05 04:25:48;;;;;;;3.17;2.97;;;26.60;50.40;;;;;;5020140;28;20960;-66
2023/06/05 04:28:18;;;;;;;3.10;2.90;;;26.60;50.40;;;;;;5015073;28;20487;-66
2023/06/05 04:30:47;;;;;;;3.50;3.20;;;26.60;50.40;;;;;;5011079;28;20467;-65
2023/06/05 04:33:18;;;;;;;3.30;3.00;;;26.60;50.30;;;;;;5016656;28;20975;-66
2023/06/05 04:35:48;;;;;;;3.63;3.33;;;26.60;50.30;;;;;;5028483;28;20995;-67
2023/06/05 04:38:21;;;;;;;4.20;3.80;;;26.60;50.40;;;;;;5014188;28;20528;-66
2023/06/05 04:40:51;;;;;;;3.50;3.30;;;26.60;50.30;;;;;;5013171;28;20477;-65
2023/06/05 04:43:19;;;;;;;3.93;3.57;;;26.60;50.40;;;;;;5018240;28;20470;-66
2023/06/05 04:45:48;;;;;;;3.77;3.47;;;26.60;50.40;;;;;;5022687;28;20454;-67
2023/06/05 04:48:17;;;;;;;3.37;3.17;;;26.60;50.40;;;;;;5015169;28;20475;-66
2023/06/05 04:50:47;;;;;;;4.53;3.37;;;26.60;50.30;;;;;;5018633;28;20810;-67
2023/06/05 04:53:18;;;;;;;3.50;3.20;;;26.60;50.30;;;;;;5025032;28;20550;-65
2023/06/05 04:55:46;;;;;;;3.90;3.50;;;26.60;50.40;;;;;;5031927;28;21013;-66
2023/06/05 04:58:19;;;;;;;3.50;3.20;;;26.60;50.30;;;;;;5013350;28;20465;-66
2023/06/05 05:00:49;;;;;;;3.23;3.03;;;26.60;50.50;;;;;;5024960;28;20609;-66
2023/06/05 05:03:20;;;;;;;3.60;3.30;;;26.60;50.50;;;;;;5012157;28;20841;-66
2023/06/05 05:05:48;;;;;;;3.60;3.30;;;26.60;50.50;;;;;;5013531;28;20462;-66
2023/06/05 05:08:18;;;;;;;5.17;3.80;;;26.60;50.40;;;;;;5018901;28;20464;-66
2023/06/05 05:10:47;;;;;;;3.63;3.07;;;26.60;50.50;;;;;;5009765;28;20864;-65
2023/06/05 05:13:15;;;;;;;2.90;2.70;;;26.60;50.50;;;;;;5010787;28;20955;-67
2023/06/05 05:15:44;;;;;;;3.30;3.07;;;26.60;50.50;;;;;;5011229;28;20499;-69
2023/06/05 05:18:12;;;;;;;4.17;3.80;;;26.60;50.40;;;;;;5017310;28;20522;-66
2023/06/05 05:20:41;;;;;;;9.60;3.60;;;26.60;50.40;;;;;;5013336;28;20963;-66
2023/06/05 05:23:09;;;;;;;4.00;3.70;;;26.60;50.40;;;;;;5014791;28;20927;-68
2023/06/05 05:25:40;;;;;;;3.90;3.60;;;26.60;50.60;;;;;;5011649;28;20470;-66
2023/06/05 05:28:08;;;;;;;3.83;3.43;;;26.60;50.50;;;;;;5013142;28;20492;-66
2023/06/05 05:30:37;;;;;;;3.80;3.50;;;26.60;50.60;;;;;;5016462;28;20452;-65
2023/06/05 05:33:06;;;;;;;4.20;3.90;;;26.60;50.60;;;;;;5024662;28;20462;-66
2023/06/05 05:35:35;;;;;;;3.83;3.50;;;26.60;50.70;;;;;;5024361;28;20504;-66
2023/06/05 05:38:03;;;;;;;4.37;3.97;;;26.60;50.70;;;;;;5023266;28;20466;-66
2023/06/05 05:40:32;;;;;;;4.03;3.63;;;26.60;50.80;;;;;;5029444;28;20456;-65
2023/06/05 05:43:02;;;;;;;4.13;3.53;;;26.60;50.90;;;;;;5027209;28;20480;-66
2023/06/05 05:45:30;;;;;;;4.23;3.70;;;26.60;51.00;;;;;;5028713;28;20463;-65
2023/06/05 05:47:59;;;;;;;3.53;3.27;;;26.70;51.00;;;;;;5027098;28;20478;-66
2023/06/05 05:50:27;;;;;;;4.37;3.97;;;26.70;51.00;;;;;;5028271;28;20447;-65
2023/06/05 05:52:55;;;;;;;4.00;3.63;;;26.70;51.00;;;;;;5024954;28;20521;-66
2023/06/05 05:55:24;;;;;;;5.93;3.80;;;26.70;51.10;;;;;;5026670;28;20458;-68
2023/06/05 05:57:52;;;;;;;3.70;3.50;;;26.70;51.10;;;;;;5029700;28;20497;-65
2023/06/05 06:00:22;;;;;;;3.60;3.30;;;26.70;51.10;;;;;;5026039;28;20466;-67
2023/06/05 06:02:51;;;;;;;3.57;3.27;;;26.70;51.20;;;;;;5026552;28;20461;-69
2023/06/05 06:05:20;;;;;;;4.13;3.70;;;26.70;51.20;;;;;;5030816;28;20558;-66
2023/06/05 06:07:48;;;;;;;3.87;3.57;;;26.80;51.20;;;;;;5033303;28;20456;-66
2023/06/05 06:10:17;;;;;;;4.63;4.10;;;26.80;51.20;;;;;;5030974;28;20471;-65
2023/06/05 06:12:45;;;;;;;3.73;3.43;;;26.80;51.20;;;;;;5032123;28;20531;-66
2023/06/05 06:15:14;;;;;;;3.90;3.60;;;26.80;51.20;;;;;;5032111;28;20464;-68
2023/06/05 06:17:43;;;;;;;4.50;3.77;;;26.80;51.20;;;;;;5030512;28;20501;-67
2023/06/05 06:20:13;;;;;;;3.97;3.67;;;26.80;51.30;;;;;;5031245;28;20445;-66
2023/06/05 06:22:41;;;;;;;4.33;3.93;;;26.80;51.30;;;;;;5036900;28;20834;-66
2023/06/05 06:25:14;;;;;;;3.27;3.03;;;26.80;51.30;;;;;;5036943;28;20451;-66
2023/06/05 06:27:43;;;;;;;5.20;3.13;;;26.80;51.30;;;;;;5032009;28;20589;-66
2023/06/05 06:30:12;;;;;;;3.83;3.60;;;26.90;51.30;;;;;;5040107;28;20632;-69
2023/06/05 06:32:40;;;;;;;3.43;3.10;;;26.80;51.40;;;;;;5041816;28;20520;-66
2023/06/05 06:35:10;;;;;;;4.10;3.80;;;26.90;51.40;;;;;;5035406;28;20443;-65
2023/06/05 06:37:38;;;;;;;4.93;3.00;;;26.90;51.40;;;;;;5035273;28;20478;-65
2023/06/05 06:40:09;;;;;;;4.47;4.17;;;26.90;51.40;;;;;;5032363;28;20446;-66
2023/06/05 06:42:37;;;;;;;3.50;3.20;;;26.90;51.40;;;;;;5035452;28;20438;-65
2023/06/05 06:45:28;;;;;;;3.70;3.40;;;26.90;51.40;;;;;;5021291;28;20440;-65
2023/06/05 06:47:57;;;;;;;3.80;3.50;;;26.90;51.40;;;;;;5026213;28;20446;-65
2023/06/05 06:50:36;;;;;;;4.50;4.10;;;26.90;51.50;;;;;;5037372;28;20549;-65
2023/06/05 06:53:05;;;;;;;3.90;3.60;;;26.90;51.50;;;;;;5040814;28;20893;-69
2023/06/05 06:55:33;;;;;;;4.77;4.00;;;26.90;51.50;;;;;;5033648;28;20550;-66
2023/06/05 06:58:02;;;;;;;3.63;3.30;;;26.90;51.50;;;;;;5032742;28;20475;-65
2023/06/05 07:00:30;;;;;;;4.40;4.00;;;26.90;51.50;;;;;;5031398;28;20468;-67
2023/06/05 07:02:58;;;;;;;4.50;3.53;;;26.90;51.50;;;;;;5034789;28;20490;-65
2023/06/05 07:05:27;;;;;;;3.50;3.20;;;26.90;51.50;;;;;;5032211;28;20458;-65
2023/06/05 07:08:00;;;;;;;3.90;3.47;;;26.90;51.50;;;;;;5028516;28;20550;-65
2023/06/05 07:10:29;;;;;;;3.77;3.43;;;26.90;51.50;;;;;;5033366;28;20505;-65
2023/06/05 07:12:57;;;;;;;4.27;3.87;;;26.90;51.60;;;;;;5030173;28;20543;-66
2023/06/05 07:15:25;;;;;;;3.93;3.50;;;27.00;51.70;;;;;;5032500;28;20502;-66
2023/06/05 07:17:54;;;;;;;4.20;3.83;;;27.00;52.00;;;;;;5023519;28;20976;-68
2023/06/05 07:20:22;;;;;;;3.87;3.57;;;27.00;52.10;;;;;;5033917;28;20459;-66
2023/06/05 07:22:51;;;;;;;3.23;2.90;;;27.00;52.30;;;;;;5031533;28;20456;-67
2023/06/05 07:25:24;;;;;;;3.73;3.40;;;27.00;52.40;;;;;;5035851;28;20488;-66
2023/06/05 07:27:52;;;;;;;3.37;3.07;;;27.00;52.50;;;;;;5040608;28;20550;-66
2023/06/05 07:30:20;;;;;;;4.33;3.90;;;27.00;52.50;;;;;;5035217;28;20455;-66
2023/06/05 07:32:49;;;;;;;3.60;3.30;;;27.00;52.50;;;;;;5023658;28;20468;-65
2023/06/05 07:35:17;;;;;;;3.73;3.43;;;27.10;52.60;;;;;;5024183;28;20451;-66
2023/06/05 07:37:45;;;;;;;3.47;3.17;;;27.10;52.70;;;;;;5036513;28;20485;-67
2023/06/05 07:40:13;;;;;;;4.60;3.33;;;27.10;52.70;;;;;;5031970;28;20471;-66
2023/06/05 07:42:43;;;;;;;3.20;2.70;;;27.10;52.70;;;;;;5029437;28;20509;-66
2023/06/05 07:45:11;;;;;;;3.83;3.50;;;27.20;52.60;;;;;;5039904;28;20464;-66
2023/06/05 07:47:39;;;;;;;3.30;3.10;;;27.20;52.60;;;;;;5032811;28;20486;-67
2023/06/05 07:50:09;;;;;;;3.50;3.20;;;27.20;52.60;;;;;;5029279;28;20459;-67
2023/06/05 07:52:37;;;;;;;3.60;3.40;;;27.20;52.70;;;;;;5032260;28;20526;-66
2023/06/05 07:55:07;;;;;;;3.30;3.07;;;27.20;52.70;;;;;;5041137;28;20470;-66
2023/06/05 07:57:36;;;;;;;4.77;3.93;;;27.20;52.70;;;;;;5047147;28;20478;-67
2023/06/05 08:00:10;;;;;;;3.87;3.50;;;27.20;52.60;;;;;;5033065;28;20464;-68
2023/06/05 08:02:48;;;;;;;3.47;3.17;;;27.20;52.60;;;;;;5024344;28;21043;-67
2023/06/05 08:05:19;;;;;;;3.13;2.93;;;27.20;52.60;;;;;;5034878;28;20487;-66
2023/06/05 08:07:47;;;;;;;3.43;3.17;;;27.30;52.70;;;;;;5025484;28;20473;-66
2023/06/05 08:10:15;;;;;;;2.70;2.50;;;27.30;52.70;;;;;;5023550;28;20555;-66
2023/06/05 08:12:44;;;;;;;3.07;2.87;;;27.30;52.70;;;;;;5028000;28;20453;-66
2023/06/05 08:15:13;;;;;;;4.67;3.73;;;27.30;52.70;;;;;;5027446;28;20455;-67
2023/06/05 08:17:41;;;;;;;3.03;2.83;;;27.30;52.60;;;;;;5025953;28;20478;-67
2023/06/05 08:20:11;;;;;;;6.00;3.23;;;27.30;52.60;;;;;;5025684;28;20588;-67
2023/06/05 08:22:40;;;;;;;3.50;3.20;;;27.40;52.60;;;;;;5027862;28;20476;-67
2023/06/05 08:25:09;;;;;;;3.30;3.10;;;27.40;52.70;;;;;;5028098;28;20468;-67
2023/06/05 08:27:37;;;;;;;3.83;3.53;;;27.40;52.60;;;;;;5026431;28;21030;-67
2023/06/05 08:30:06;;;;;;;4.33;3.60;;;27.40;52.70;;;;;;5026383;28;20949;-67
2023/06/05 08:32:36;;;;;;;3.47;3.27;;;27.40;52.60;;;;;;5028179;28;21044;-69
2023/06/05 08:35:05;;;;;;;3.70;3.40;;;27.40;52.70;;;;;;5027314;28;20465;-68
2023/06/05 08:37:34;;;;;;;4.57;3.43;;;27.40;52.70;;;;;;5027711;28;20479;-68
2023/06/05 08:40:06;;;;;;;3.93;3.63;;;27.40;52.50;;;;;;5025520;28;20986;-69
2023/06/05 08:42:34;;;;;;;3.30;3.00;;;27.40;52.60;;;;;;5031456;28;20484;-66
2023/06/05 08:45:04;;;;;;;3.50;3.17;;;27.50;52.60;;;;;;5028807;28;20486;-67
2023/06/05 08:47:32;;;;;;;3.03;2.83;;;27.50;52.70;;;;;;5029593;28;20467;-67
2023/06/05 08:50:04;;;;;;;4.20;3.80;;;27.50;52.70;;;;;;5036707;28;20463;-67
2023/06/05 08:52:35;;;;;;;3.80;3.33;;;27.50;52.60;;;;;;5029947;28;20954;-67
2023/06/05 08:55:05;;;;;;;4.00;3.70;;;27.50;52.60;;;;;;5029907;28;20465;-67
2023/06/05 08:57:36;;;;;;;4.17;3.80;;;27.50;52.50;;;;;;5030548;28;20502;-67
2023/06/05 09:00:07;;;;;;;3.50;2.90;;;27.50;52.60;;;;;;5036982;28;20823;-67
2023/06/05 09:02:37;;;;;;;3.47;3.27;;;27.50;52.70;;;;;;5028938;28;20456;-68
2023/06/05 09:05:08;;;;;;;4.17;3.73;;;27.50;52.60;;;;;;5029792;28;20468;-68
2023/06/05 09:07:37;;;;;;;3.17;2.97;;;27.50;52.40;;;;;;5039917;28;20479;-67
2023/06/05 09:10:07;;;;;;;3.63;3.43;;;27.50;52.20;;;;;;5034663;28;20494;-67
2023/06/05 09:12:53;;;;;;;4.03;3.73;;;27.50;52.50;;;;;;5032096;28;20455;-68
2023/06/05 09:15:23;;;;;;;4.07;3.77;;;27.50;52.50;;;;;;5030689;28;20462;-66
2023/06/05 09:18:05;;;;;;;4.00;3.70;;;27.60;52.50;;;;;;5029247;28;20886;-67
2023/06/05 09:20:36;;;;;;;3.70;3.40;;;27.60;52.50;;;;;;5030399;28;20503;-67
2023/06/05 09:23:06;;;;;;;3.87;3.57;;;27.60;52.60;;;;;;5046719;28;20451;-65
2023/06/05 09:25:52;;;;;;;3.47;3.10;;;27.60;52.70;;;;;;5029554;28;20457;-66
2023/06/05 09:28:21;;;;;;;4.17;3.87;;;27.60;52.70;;;;;;5029736;28;20492;-65
2023/06/05 09:30:57;;;;;;;3.70;3.40;;;27.70;52.70;;;;;;5028736;28;21021;-66
2023/06/05 09:33:27;;;;;;;3.23;3.03;;;27.70;52.80;;;;;;5039592;28;20452;-67
2023/06/05 09:36:10;;;;;;;2.97;2.67;;;27.70;52.80;;;;;;5029945;28;20461;-66
2023/06/05 09:38:41;;;;;;;3.27;3.00;;;27.70;52.90;;;;;;5025643;28;20584;-65
2023/06/05 09:41:10;;;;;;;4.27;3.53;;;27.70;52.90;;;;;;5034581;28;21075;-66
2023/06/05 09:43:39;;;;;;;4.47;3.50;;;27.70;52.90;;;;;;5029153;28;20466;-65
2023/06/05 09:46:09;;;;;;;3.10;2.90;;;27.80;52.90;;;;;;5028493;28;20463;-66
2023/06/05 09:48:38;;;;;;;3.60;3.30;;;27.70;53.00;;;;;;5027682;28;20459;-66
2023/06/05 09:51:12;;;;;;;3.63;3.33;;;27.80;53.00;;;;;;5028886;28;20860;-66
2023/06/05 09:53:44;;;;;;;3.40;3.20;;;27.80;53.00;;;;;;5027370;28;20495;-66
2023/06/05 09:56:14;;;;;;;3.27;2.97;;;27.80;53.10;;;;;;5022115;28;20458;-66
2023/06/05 09:58:46;;;;;;;3.20;3.00;;;27.80;53.10;;;;;;5034501;28;20557;-66
2023/06/05 10:01:17;;;;;;;3.53;3.23;;;27.80;53.10;;;;;;5037731;28;20886;-66
2023/06/05 10:03:52;;;;;;;3.20;2.90;;;27.80;53.10;;;;;;5037197;28;20452;-66
2023/06/05 10:06:23;;;;;;;3.30;3.10;;;27.80;53.10;;;;;;5032851;28;20540;-66
2023/06/05 10:08:55;;;;;;;2.53;2.33;;;27.80;53.20;;;;;;5029782;28;20458;-66
2023/06/05 10:11:26;;;;;;;3.80;3.37;;;27.90;53.20;;;;;;5026236;28;20830;-67
2023/06/05 10:13:57;;;;;;;3.20;2.97;;;27.90;53.30;;;;;;5022450;28;20462;-66
2023/06/05 10:16:27;;;;;;;3.40;3.20;;;27.90;53.20;;;;;;5027088;28;20524;-66
2023/06/05 10:18:58;;;;;;;2.50;2.40;;;27.90;53.30;;;;;;5037035;28;20841;-65
2023/06/05 10:21:28;;;;;;;3.03;2.87;;;27.90;53.20;;;;;;5030967;28;20465;-66
2023/06/05 10:24:02;;;;;;;3.23;2.90;;;27.90;53.30;;;;;;5030886;28;20455;-66
2023/06/05 10:26:46;;;;;;;3.53;3.33;;;27.90;53.40;;;;;;5038979;28;20460;-66
2023/06/05 10:29:28;;;;;;;3.07;2.87;;;27.90;53.40;;;;;;5026669;28;20502;-66
2023/06/05 10:32:02;;;;;;;3.50;3.10;;;27.90;53.50;;;;;;5030559;28;20457;-66
2023/06/05 10:34:47;;;;;;;3.00;2.80;;;27.90;53.40;;;;;;5025641;28;20516;-65
2023/06/05 10:37:48;;;;;;;2.57;2.40;;;27.90;53.40;;;;;;5036482;28;21010;-64
2023/06/05 10:40:18;;;;;;;3.20;3.00;;;27.90;53.50;;;;;;5032131;28;20457;-66
2023/06/05 10:42:46;;;;;;;3.10;2.90;;;27.90;53.50;;;;;;5036824;28;20938;-65
2023/06/05 10:45:30;;;;;;;3.07;2.87;;;27.90;53.50;;;;;;5036755;28;20461;-64
2023/06/05 10:47:58;;;;;;;3.93;3.50;;;27.90;53.50;;;;;;5041354;28;20459;-65
2023/06/05 10:50:30;;;;;;;2.90;2.70;;;28.00;53.50;;;;;;5036372;28;20489;-65
2023/06/05 10:53:00;;;;;;;2.50;2.40;;;28.00;53.50;;;;;;5036606;28;20451;-65
2023/06/05 10:55:43;;;;;;;3.27;3.07;;;28.00;53.50;;;;;;5036837;28;20539;-65
2023/06/05 10:58:13;;;;;;;2.70;2.50;;;28.00;53.60;;;;;;5043428;28;20460;-65
2023/06/05 11:01:15;;;;;;;2.90;2.70;;;28.00;53.60;;;;;;5026239;28;20461;-65
2023/06/05 11:04:00;;;;;;;3.53;2.90;;;28.00;53.50;;;;;;5033392;28;20476;-67
2023/06/05 11:06:29;;;;;;;3.50;3.20;;;28.10;53.60;;;;;;5022524;28;20462;-68
2023/06/05 11:09:13;;;;;;;4.17;3.60;;;28.00;52.30;;;;;;5025447;28;20454;-65
2023/06/05 11:11:59;;;;;;;4.10;3.60;;;27.80;52.60;;;;;;5049422;28;20462;-63
2023/06/05 11:14:45;;;;;;;3.63;3.40;;;27.70;52.30;;;;;;5035808;28;20458;-63
2023/06/05 11:17:30;;;;;;;3.50;3.30;;;27.60;52.50;;;;;;5037548;28;20459;-63
2023/06/05 11:19:58;;;;;;;4.27;3.90;;;27.50;52.30;;;;;;5038098;28;20477;-63
2023/06/05 11:22:27;;;;;;;4.00;3.70;;;27.40;52.50;;;;;;5030581;28;20508;-63
2023/06/05 11:25:29;;;;;;;4.93;4.43;;;27.40;52.60;;;;;;5030085;28;20463;-63
2023/06/05 11:27:58;;;;;;;3.87;3.57;;;27.30;52.10;;;;;;5024485;28;20501;-63
2023/06/05 11:30:32;;;;;;;4.73;4.10;;;27.40;51.60;;;;;;5032011;28;20953;-63
2023/06/05 11:33:16;;;;;;;4.90;4.20;;;27.40;50.80;;;;;;5028007;28;20489;-64
2023/06/05 11:35:46;;;;;;;5.60;4.47;;;27.40;50.40;;;;;;5024835;28;20486;-64
2023/06/05 11:38:16;;;;;;;5.07;4.70;;;27.40;50.50;;;;;;5034629;28;20457;-63
2023/06/05 11:40:50;;;;;;;4.43;3.97;;;27.50;51.60;;;;;;5032359;28;20540;-63
2023/06/05 11:43:18;;;;;;;3.53;3.30;;;27.40;51.20;;;;;;5031295;28;20569;-64
2023/06/05 11:45:51;;;;;;;4.13;3.80;;;27.40;51.40;;;;;;5027885;28;20463;-64
2023/06/05 11:48:20;;;;;;;4.63;4.20;;;27.40;50.60;;;;;;5030989;28;20512;-63
2023/06/05 11:50:58;;;;;;;5.50;4.63;;;27.50;51.50;;;;;;5030079;28;20461;-63
2023/06/05 11:53:28;;;;;;;4.53;4.10;;;27.50;51.40;;;;;;5030657;28;20457;-65
2023/06/05 11:56:08;;;;;;;4.50;4.20;;;27.60;51.50;;;;;;5035142;28;20836;-65
2023/06/05 11:58:39;;;;;;;5.40;4.80;;;27.60;51.50;;;;;;5029129;28;20464;-63
2023/06/05 12:01:12;;;;;;;5.33;4.57;;;27.60;51.60;;;;;;5023530;28;20494;-63
2023/06/05 12:03:41;;;;;;;5.33;4.93;;;27.60;51.80;;;;;;5032448;28;20871;-64
2023/06/05 12:06:12;;;;;;;7.83;5.10;;;27.70;51.00;;;;;;5036169;28;20458;-63
2023/06/05 12:08:40;;;;;;;8.27;5.10;;;27.80;49.90;;;;;;5018983;28;20965;-64
2023/06/05 12:11:23;;;;;;;5.30;4.57;;;27.90;50.20;;;;;;5025777;28;20505;-63
2023/06/05 12:13:53;;;;;;;7.00;5.63;;;28.10;50.00;;;;;;5019223;28;20457;-64
2023/06/05 12:16:30;;;;;;;4.83;4.43;;;28.20;48.20;;;;;;5023187;28;20980;-65
2023/06/05 12:18:59;;;;;;;5.97;4.67;;;28.40;49.60;;;;;;5026986;28;20588;-64
2023/06/05 12:21:46;;;;;;;4.80;4.37;;;28.50;50.00;;;;;;5040110;28;20460;-63
2023/06/05 12:24:15;;;;;;;12.87;5.30;;;28.50;50.00;;;;;;5028810;28;20482;-63
2023/06/05 12:26:58;;;;;;;4.83;4.40;;;28.60;49.80;;;;;;5036379;28;20462;-69
2023/06/05 12:29:29;;;;;;;7.63;5.30;;;28.60;49.90;;;;;;5023615;28;20538;-70
2023/06/05 12:31:59;;;;;;;6.27;5.67;;;28.60;49.80;;;;;;5021352;28;20463;-69
2023/06/05 12:34:46;;;;;;;5.47;4.63;;;28.70;49.40;;;;;;5039739;28;20454;-70
2023/06/05 12:37:25;;;;;;;5.60;5.10;;;28.80;49.00;;;;;;5028500;28;20463;-72
2023/06/05 12:39:54;;;;;;;5.10;4.67;;;28.90;47.70;;;;;;5036415;28;20483;-72
2023/06/05 12:42:23;;;;;;;6.10;4.40;;;28.90;48.50;;;;;;5032059;28;20468;-69
2023/06/05 12:44:52;;;;;;;8.00;4.93;;;28.80;48.80;;;;;;5028630;28;20526;-69
2023/06/05 12:47:21;;;;;;;5.23;4.70;;;28.70;49.00;;;;;;5025236;28;20468;-71
2023/06/05 12:49:50;;;;;;;5.33;4.93;;;28.60;48.80;;;;;;5036867;28;20494;-69
2023/06/05 12:52:25;;;;;;;10.00;5.80;;;28.60;49.00;;;;;;5035470;28;20513;-68
2023/06/05 12:54:55;;;;;;;5.17;4.73;;;28.50;48.50;;;;;;5035190;28;20461;-70
2023/06/05 12:57:25;;;;;;;4.90;4.50;;;28.30;49.60;;;;;;5031550;28;20485;-70
2023/06/05 12:59:55;;;;;;;5.70;5.20;;;28.20;49.40;;;;;;5038537;28;20484;-69
2023/06/05 13:02:25;;;;;;;4.30;3.90;;;28.20;49.90;;;;;;5024924;28;20982;-67
2023/06/05 13:04:53;;;;;;;5.07;4.67;;;28.30;50.00;;;;;;5039500;28;20470;-69
2023/06/05 13:07:22;;;;;;;6.83;5.50;;;28.30;50.00;;;;;;5029875;28;20462;-73